Brandenburg, KY

7:18 PM EDT on October 01, 2014 (GMT -0400)
Huntingburg | Change Station
CLOSE
Current Station
Airport
Location: Huntingburg,
Elevation: 528 ft
Nearby Weather Stations

Elev 528 ft 38.25 °N, 86.95 °W | Updated 66 days ago

Partly Cloudy
Partly Cloudy
70 °F
Feels Like 70 °F
N
3
Wind Variable Wind from East
Gusts 5 mph

Today
High -- | Low -- °F
--% Chance of Precip.
Yesterday
High -- | Low -- °F
Precip. -- in
7:40 AM 7:27 PM
First Quarter, 52% visible
Pressure 29.89 in
Visibility 10.0 miles
Clouds Clear
Dew Point 59 °F
Humidity 67%
Rainfall 0.00 in
Snow Depth Not available.
UV 0 out of 12
Pollen 4.80 out of 12
Ozone Good
PM2.5 Unhealthy for Sensitive Groups
Flu Activity Not available.
METAR KHNB 270055Z AUTO 28008KT 10SM VCTS CLR 29/23 A2989 RMK AO1 LTG DSNT ALQDS TSB50

More Conditions Fewer Conditions

Pressure 29.89 in
Visibility 10.0 miles
Clouds Clear
Dew Point 59 °F
Humidity 67%
Rainfall 0.00 in
Snow Depth Not available.
UV 0 out of 12
Pollen 4.80 out of 12
Ozone Good
PM2.5 Unhealthy for Sensitive Groups
Flu Activity Not available.
METAR KHNB 270055Z AUTO 28008KT 10SM VCTS CLR 29/23 A2989 RMK AO1 LTG DSNT ALQDS TSB50

More Conditions Fewer Conditions

10-Day Weather Forecast

Almanac

Astronomy

Oct. 01, 2014 Rise Set
Actual Time 7:40 AM EDT 7:27 PM EDT
Civil Twilight 7:13 AM EDT 7:53 PM EDT
Nautical Twilight 6:43 AM EDT 8:24 PM EDT
Astronomical Twilight 6:12 AM EDT 8:54 PM EDT
Moon 2:36 PM EDT 12:02 AM EDT
Length of Visible Light 12h 39m
Length of Day
11h 47m
Tomorrow will be 2m 26s shorter.
First Quarter, 52% of the Moon is Illuminated
Today
First Quarter
Oct 8
Full
Oct 15
Last Quarter
Oct 23
New
Oct 30
First Quarter

Today's Extremes

State Highs State Lows

Community

WunderPhotos

Upload Photos

1,758,077 photos uploaded!

WunderBlogs® & News

By Dr. Jeff Masters
Director of Meteorology, Weather Underground
By Kari Strenfel
Meteorologist, Weather Underground
By Christopher C. Burt
Weather Historian, Weather Underground
October 1, 2014
October 1, 2014
October 1, 2014

Nearby

Air Quality

  Air Quality AQ Index Pollutant
Yesterday Good
PM10
Yesterday Moderate
OZONE
Current Unhealthy for Sensitive Groups
PM2.5
Current Good
OZONE
Wednesday Moderate
PM2.5
Wednesday Good
OZONE
Thursday Moderate
PM2.5
Thursday Good
OZONE

Snow Depth

Station Depth Elevation
No new snow has been reported.

Earthquake Activity

City Distance Mag. Time & Date
No recent earthquake activity has been reported nearby.
Minimum magnitude displayed is 2.5.

Coastal Water Temperatures

Place Temperature
No Stations Reporting

Nearby Weather Stations